Time;durP1;ratioP1;P1;durP2;ratioP2;P2;SDS_P1;SDS_P2;PMS_P1;PMS_P2;Temp;Humidity;BMP_temperature;BMP_pressure;BME280_temperature;BME280_humidity;BME280_pressure;Samples;Min_cycle;Max_cycle;Signal;HPM_P1;HPM_P2
2022/12/25 00:00:26;;;;;;;58.22;13.25;;;5.20;99.90;;;;;;4985244;28;20044;-87
2022/12/25 00:02:53;;;;;;;48.90;12.68;;;5.10;99.90;;;;;;4994248;28;20108;-87
2022/12/25 00:05:18;;;;;;;54.25;12.73;;;5.00;99.90;;;;;;5016915;28;20526;-87
2022/12/25 00:07:44;;;;;;;49.63;12.37;;;5.60;99.90;;;;;;4964440;28;20121;-87
2022/12/25 00:10:10;;;;;;;47.23;13.40;;;5.00;99.90;;;;;;4984872;28;20288;-87
2022/12/25 00:12:36;;;;;;;70.40;14.02;;;5.00;99.90;;;;;;5016527;28;20284;-86
2022/12/25 00:15:02;;;;;;;58.65;15.35;;;5.90;99.90;;;;;;5017432;28;20129;-86
2022/12/25 00:17:28;;;;;;;54.80;14.55;;;4.90;99.90;;;;;;5017296;28;20037;-86
2022/12/25 00:19:53;;;;;;;62.97;17.20;;;4.90;99.90;;;;;;4984775;28;20044;-86
2022/12/25 00:22:19;;;;;;;52.67;13.30;;;4.90;99.90;;;;;;5005118;28;20312;-87
2022/12/25 00:24:47;;;;;;;52.75;13.80;;;5.00;99.90;;;;;;4997613;28;20502;-87
2022/12/25 00:27:13;;;;;;;56.15;15.20;;;5.10;99.90;;;;;;5005614;28;20034;-86
2022/12/25 00:29:38;;;;;;;57.17;14.63;;;5.20;99.90;;;;;;4989864;28;20045;-87
2022/12/25 00:32:04;;;;;;;49.42;14.55;;;5.20;99.90;;;;;;4997509;28;20034;-87
2022/12/25 00:34:30;;;;;;;54.75;14.27;;;5.20;99.90;;;;;;4997496;28;20494;-86
2022/12/25 00:36:56;;;;;;;51.97;13.20;;;5.30;99.90;;;;;;4965786;28;20034;-86
2022/12/25 00:39:21;;;;;;;62.80;15.70;;;6.40;99.90;;;;;;4981644;28;20045;-86
2022/12/25 00:44:31;;;;;;;65.35;15.10;;;5.60;99.90;;;;;;5000495;28;20099;-86
2022/12/25 00:46:57;;;;;;;38.40;12.55;;;5.20;99.90;;;;;;4981564;28;20121;-86
2022/12/25 00:49:23;;;;;;;55.05;14.23;;;5.20;99.90;;;;;;4981929;28;20418;-86
2022/12/25 00:51:49;;;;;;;43.42;10.93;;;5.50;99.90;;;;;;4982184;28;20486;-86
2022/12/25 00:54:15;;;;;;;62.88;14.70;;;5.30;99.90;;;;;;5015953;28;20037;-86
2022/12/25 00:56:41;;;;;;;56.65;14.05;;;5.40;99.90;;;;;;4980956;28;20034;-86
2022/12/25 00:59:06;;;;;;;56.72;15.35;;;5.30;99.90;;;;;;4997342;28;20060;-86
2022/12/25 01:01:33;;;;;;;59.60;15.05;;;5.50;99.90;;;;;;4997358;28;20049;-86
2022/12/25 01:03:59;;;;;;;65.03;15.23;;;5.60;99.90;;;;;;4981355;28;20049;-86
2022/12/25 01:06:25;;;;;;;57.10;15.13;;;5.20;99.90;;;;;;4997245;28;20500;-86
2022/12/25 01:11:35;;;;;;;50.85;14.15;;;5.20;99.90;;;;;;5013585;28;20053;-87
2022/12/25 01:14:01;;;;;;;56.35;16.17;;;5.20;99.90;;;;;;4979729;28;20163;-86
2022/12/25 01:16:27;;;;;;;55.78;15.32;;;5.20;99.90;;;;;;5021970;28;20103;-87
2022/12/25 01:18:53;;;;;;;;;;;5.40;99.90;;;;;;5024935;28;20049;-86
2022/12/25 01:21:20;;;;;;;62.25;14.32;;;5.20;99.90;;;;;;5013519;28;19921;-86
2022/12/25 01:23:47;;;;;;;71.82;15.85;;;5.30;99.90;;;;;;5013375;28;20076;-87
2022/12/25 01:26:14;;;;;;;62.20;14.85;;;5.30;99.90;;;;;;4981018;28;20509;-87
2022/12/25 01:28:40;;;;;;;62.22;15.90;;;5.70;99.90;;;;;;5013083;28;20046;-87
2022/12/25 01:31:10;;;;;;;;;;;5.50;99.90;;;;;;4998779;28;20237;-87
2022/12/25 01:33:37;;;;;;;55.40;16.35;;;5.50;99.90;;;;;;5001843;28;20032;-86
2022/12/25 01:36:04;;;;;;;63.33;17.00;;;5.60;99.90;;;;;;5017677;28;20426;-87
2022/12/25 01:38:30;;;;;;;71.38;14.90;;;5.70;99.90;;;;;;5037620;28;20120;-86
2022/12/25 01:40:55;;;;;;;76.85;18.98;;;5.80;99.90;;;;;;5015002;28;20580;-86
2022/12/25 01:43:31;;;;;;;66.30;16.83;;;5.90;99.90;;;;;;5001257;28;20556;-86
2022/12/25 01:45:57;;;;;;;88.03;19.10;;;5.90;99.90;;;;;;5000777;28;20034;-86
2022/12/25 01:48:28;;;;;;;75.68;16.63;;;6.00;99.90;;;;;;5020392;28;20037;-86
2022/12/25 01:51:24;;;;;;;53.30;14.43;;;6.00;99.90;;;;;;5020869;28;20044;-86
2022/12/25 01:53:49;;;;;;;45.67;13.98;;;6.00;99.90;;;;;;5036123;28;20490;-86
2022/12/25 01:56:15;;;;;;;64.10;17.40;;;6.10;99.90;;;;;;4988370;28;20048;-86
2022/12/25 01:58:41;;;;;;;81.38;17.67;;;6.40;99.90;;;;;;5020640;28;20042;-87
2022/12/25 02:01:08;;;;;;;77.80;17.52;;;6.40;99.90;;;;;;5001032;28;20046;-86
2022/12/25 02:03:33;;;;;;;82.88;20.17;;;6.10;99.90;;;;;;5000835;28;20077;-86
2022/12/25 02:06:02;;;;;;;112.72;22.63;;;6.10;99.90;;;;;;4967807;28;20077;-86
2022/12/25 02:08:28;;;;;;;92.57;19.55;;;6.10;99.90;;;;;;5016878;28;20057;-87
2022/12/25 02:10:54;;;;;;;73.82;18.65;;;6.50;99.90;;;;;;4984744;28;20042;-87
2022/12/25 02:13:20;;;;;;;88.90;20.75;;;6.20;99.90;;;;;;4999927;28;20053;-87
2022/12/25 02:15:56;;;;;;;70.88;17.85;;;6.20;99.90;;;;;;5000352;28;20033;-87
2022/12/25 02:18:47;;;;;;;85.28;19.42;;;6.20;99.90;;;;;;5007924;28;20401;-87
2022/12/25 02:21:31;;;;;;;78.07;18.67;;;6.30;99.90;;;;;;5019338;28;20046;-86
2022/12/25 02:24:24;;;;;;;80.05;19.85;;;6.30;99.90;;;;;;4980678;28;20133;-87
2022/12/25 02:27:07;;;;;;;80.93;19.13;;;6.30;99.90;;;;;;4980273;28;20078;-87
2022/12/25 02:30:02;;;;;;;76.35;19.33;;;6.40;99.90;;;;;;4996634;28;20068;-86
2022/12/25 02:32:49;;;;;;;72.95;18.60;;;6.50;99.90;;;;;;5016083;28;20088;-86
2022/12/25 02:35:20;;;;;;;63.60;16.25;;;6.50;99.90;;;;;;4999549;28;20084;-87
2022/12/25 02:38:03;;;;;;;71.43;16.55;;;6.50;99.90;;;;;;5016970;28;20072;-87
2022/12/25 02:40:42;;;;;;;74.90;19.55;;;6.60;99.90;;;;;;5023288;28;20052;-87
2022/12/25 03:11:29;;;;;;;68.70;19.30;;;6.80;99.90;;;;;;5020551;28;20060;-87
2022/12/25 03:11:54;;;;;;;64.75;17.80;;;6.80;99.90;;;;;;5033983;28;20124;-87
2022/12/25 03:17:04;;;;;;;65.03;16.65;;;6.90;99.90;;;;;;5034664;28;20052;-87
2022/12/25 03:28:02;;;;;;;57.22;16.73;;;7.00;99.90;;;;;;5020613;28;20096;-87
2022/12/25 03:31:11;;;;;;;50.53;14.95;;;6.90;99.90;;;;;;5034732;28;20505;-87
2022/12/25 03:35:21;;;;;;;55.65;16.17;;;6.90;99.90;;;;;;5014332;28;20037;-87
2022/12/25 04:36:15;;;;;;;66.90;18.77;;;7.30;99.90;;;;;;5034393;28;20048;-87
2022/12/25 04:38:41;;;;;;;54.17;17.30;;;7.40;99.90;;;;;;5017659;28;20410;-87
2022/12/25 04:41:09;;;;;;;46.38;16.17;;;7.40;99.90;;;;;;5017036;28;20045;-87
2022/12/25 04:43:35;;;;;;;74.22;17.48;;;7.50;99.90;;;;;;5033549;28;20477;-87
2022/12/25 04:46:02;;;;;;;68.32;18.50;;;7.60;99.90;;;;;;5017319;28;20052;-87
2022/12/25 04:48:30;;;;;;;76.30;18.83;;;7.50;99.90;;;;;;5000200;28;20405;-87
2022/12/25 04:50:56;;;;;;;74.35;20.63;;;7.60;99.90;;;;;;5014432;28;20038;-87
2022/12/25 04:53:22;;;;;;;71.03;19.23;;;7.50;99.90;;;;;;4982100;28;20045;-88
2022/12/25 04:55:47;;;;;;;61.45;16.63;;;7.70;99.90;;;;;;4997564;28;20364;-87
2022/12/25 04:58:13;;;;;;;57.23;17.73;;;7.60;99.90;;;;;;4981964;28;20100;-88
2022/12/25 05:00:39;;;;;;;60.40;17.35;;;7.70;99.90;;;;;;5016595;28;20300;-87
2022/12/25 05:03:05;;;;;;;62.78;17.58;;;7.60;99.90;;;;;;5000401;28;20116;-87
2022/12/25 05:05:31;;;;;;;68.93;17.60;;;7.60;99.90;;;;;;5000302;28;20131;-87
2022/12/25 05:07:56;;;;;;;60.65;18.00;;;7.70;99.90;;;;;;5000413;28;20284;-87
2022/12/25 05:10:23;;;;;;;73.60;19.40;;;7.80;99.90;;;;;;5001648;28;20033;-87
2022/12/25 05:12:48;;;;;;;60.60;18.08;;;7.70;99.90;;;;;;5016997;28;20209;-87
2022/12/25 05:15:14;;;;;;;78.80;19.27;;;7.80;99.90;;;;;;5034391;28;20498;-88
2022/12/25 05:17:40;;;;;;;57.63;15.80;;;7.70;99.90;;;;;;4997983;28;20061;-86
2022/12/25 05:20:06;;;;;;;55.50;16.10;;;7.80;99.90;;;;;;4997088;28;20128;-86
2022/12/25 05:22:35;;;;;;;68.72;19.30;;;7.80;99.90;;;;;;4985373;28;20359;-87
2022/12/25 05:25:01;;;;;;;70.07;18.98;;;7.80;99.90;;;;;;5013205;28;20049;-87
2022/12/25 05:27:26;;;;;;;63.80;18.33;;;7.80;99.90;;;;;;4998719;28;20529;-87
2022/12/25 05:29:52;;;;;;;55.27;15.70;;;7.90;99.90;;;;;;5002068;28;20037;-87
2022/12/25 05:32:18;;;;;;;60.30;17.40;;;7.80;99.90;;;;;;5017170;28;20088;-87
2022/12/25 05:34:43;;;;;;;53.45;17.52;;;7.90;99.90;;;;;;5010992;28;20113;-87
2022/12/25 05:37:09;;;;;;;57.00;17.50;;;7.90;99.90;;;;;;4964898;28;20038;-87
2022/12/25 05:39:35;;;;;;;54.58;16.17;;;7.90;99.90;;;;;;4981732;28;20038;-87
2022/12/25 05:42:00;;;;;;;53.67;17.43;;;7.90;99.90;;;;;;4988808;28;20069;-87
2022/12/25 05:44:26;;;;;;;73.33;18.80;;;7.90;99.90;;;;;;4981220;28;20292;-87
2022/12/25 05:46:52;;;;;;;55.65;15.85;;;7.90;99.90;;;;;;4964606;28;20050;-87
2022/12/25 05:49:17;;;;;;;70.75;17.25;;;7.80;99.90;;;;;;4997055;28;20042;-87
2022/12/25 05:51:43;;;;;;;67.13;16.87;;;7.90;99.90;;;;;;4982090;28;20041;-86
2022/12/25 05:54:09;;;;;;;59.73;18.10;;;7.90;99.90;;;;;;4999141;28;20287;-87
2022/12/25 05:56:34;;;;;;;64.10;17.20;;;7.80;99.90;;;;;;4989172;28;20065;-87
2022/12/25 05:59:00;;;;;;;67.00;19.73;;;7.90;99.90;;;;;;4984715;28;20045;-87
2022/12/25 06:01:27;;;;;;;64.87;18.00;;;7.90;99.90;;;;;;4997678;28;20284;-87
2022/12/25 06:03:53;;;;;;;63.65;18.92;;;7.90;99.90;;;;;;5013024;28;20343;-88
2022/12/25 06:06:19;;;;;;;74.30;19.52;;;7.90;99.90;;;;;;4976834;28;20037;-87
2022/12/25 06:08:45;;;;;;;58.00;16.38;;;8.00;99.90;;;;;;4999636;28;20125;-87
2022/12/25 06:11:13;;;;;;;57.50;15.57;;;7.90;99.90;;;;;;4999705;28;20121;-87
2022/12/25 06:13:42;;;;;;;66.82;18.73;;;8.00;99.90;;;;;;4989220;28;20058;-87
2022/12/25 06:16:09;;;;;;;71.10;17.95;;;7.90;99.90;;;;;;4998808;28;20398;-86
2022/12/25 06:18:41;;;;;;;77.88;19.67;;;7.90;99.90;;;;;;5015544;28;20038;-87
2022/12/25 06:21:08;;;;;;;79.53;18.92;;;8.00;99.90;;;;;;5000059;28;20052;-87
2022/12/25 06:23:34;;;;;;;83.32;22.60;;;8.00;99.90;;;;;;5005207;28;20064;-87
2022/12/25 06:26:06;;;;;;;81.45;21.55;;;8.00;99.90;;;;;;5001337;28;20037;-87
2022/12/25 06:28:32;;;;;;;71.70;19.17;;;8.00;99.90;;;;;;5028383;28;20049;-87
2022/12/25 06:30:58;;;;;;;79.57;21.67;;;8.00;99.90;;;;;;4976232;28;20506;-88
2022/12/25 06:33:23;;;;;;;95.35;21.75;;;8.00;99.90;;;;;;5019289;28;20038;-87
2022/12/25 06:35:49;;;;;;;62.08;16.08;;;8.00;99.90;;;;;;5001420;28;20461;-88
2022/12/25 06:38:15;;;;;;;65.72;17.98;;;8.00;99.90;;;;;;5015157;28;20041;-87
2022/12/25 06:40:41;;;;;;;81.72;18.40;;;8.00;99.90;;;;;;5013158;28;20034;-87
2022/12/25 06:43:06;;;;;;;97.63;22.23;;;8.00;99.90;;;;;;4983928;28;20038;-87
2022/12/25 06:45:34;;;;;;;62.27;18.17;;;8.00;99.90;;;;;;5027873;28;20288;-87
2022/12/25 06:48:01;;;;;;;71.32;17.98;;;8.00;99.90;;;;;;5026995;28;20292;-88
2022/12/25 06:50:26;;;;;;;105.32;23.85;;;8.10;99.90;;;;;;4999020;28;20044;-88
2022/12/25 06:52:52;;;;;;;89.60;20.58;;;8.00;99.90;;;;;;4986988;28;20445;-87
2022/12/25 06:55:18;;;;;;;90.68;20.92;;;8.00;99.90;;;;;;4989198;28;20052;-88
2022/12/25 06:57:46;;;;;;;86.70;25.02;;;8.10;99.90;;;;;;4975390;28;20124;-87
2022/12/25 07:00:13;;;;;;;94.43;22.65;;;8.00;99.90;;;;;;4986308;28;20505;-88
2022/12/25 07:02:48;;;;;;;88.68;21.05;;;8.00;99.90;;;;;;4986623;28;20105;-87
2022/12/25 07:05:14;;;;;;;93.05;22.60;;;7.90;99.90;;;;;;5019079;28;20105;-87
2022/12/25 07:07:39;;;;;;;79.95;21.45;;;8.00;99.90;;;;;;4983268;28;20088;-87
2022/12/25 07:10:06;;;;;;;81.68;22.73;;;8.00;99.90;;;;;;4998650;28;20132;-87
2022/12/25 07:12:31;;;;;;;;;;;8.00;99.90;;;;;;4982423;28;20443;-86
2022/12/25 07:14:57;;;;;;;79.97;22.20;;;8.00;99.90;;;;;;5005245;28;19917;-87
2022/12/25 07:17:23;;;;;;;77.38;19.15;;;8.00;99.90;;;;;;5033668;28;20069;-87
2022/12/25 07:19:49;;;;;;;76.10;20.05;;;8.10;99.90;;;;;;4990172;28;20056;-87
2022/12/25 07:22:15;;;;;;;75.15;19.50;;;8.10;99.90;;;;;;5035273;28;20163;-87
2022/12/25 07:24:41;;;;;;;80.63;20.83;;;8.10;99.90;;;;;;5018527;28;20049;-87
2022/12/25 07:27:07;;;;;;;74.47;20.30;;;8.10;99.90;;;;;;5018616;28;20493;-87
2022/12/25 07:29:34;;;;;;;67.30;19.60;;;8.20;99.90;;;;;;5005956;28;20375;-86
2022/12/25 07:31:59;;;;;;;74.22;20.13;;;8.10;99.90;;;;;;5004117;28;20030;-89
2022/12/25 07:34:25;;;;;;;76.60;21.10;;;8.10;99.90;;;;;;5005643;28;20048;-88
2022/12/25 07:36:52;;;;;;;73.63;20.70;;;8.10;99.90;;;;;;4988666;28;20288;-88
2022/12/25 07:39:18;;;;;;;73.38;20.48;;;8.10;99.90;;;;;;4994178;28;20768;-86
2022/12/25 07:41:44;;;;;;;85.30;21.00;;;8.10;99.90;;;;;;4987596;28;20064;-86
2022/12/25 07:44:09;;;;;;;74.35;19.05;;;8.10;99.90;;;;;;5006971;28;20033;-87
2022/12/25 07:46:35;;;;;;;58.15;17.10;;;8.00;99.90;;;;;;5008688;28;20651;-88
2022/12/25 07:49:01;;;;;;;69.30;18.83;;;8.10;99.90;;;;;;5010329;28;20034;-88
2022/12/25 07:51:28;;;;;;;58.70;18.25;;;8.10;99.90;;;;;;5007329;28;20288;-89
2022/12/25 07:53:55;;;;;;;62.00;18.02;;;8.20;99.90;;;;;;4993271;28;20013;-86
2022/12/25 07:56:21;;;;;;;;;;;8.20;99.90;;;;;;5018086;28;20397;-87
2022/12/25 07:58:47;;;;;;;64.85;18.08;;;8.20;99.90;;;;;;5025826;28;19924;-85
2022/12/25 08:01:13;;;;;;;;;;;8.20;99.90;;;;;;4993529;28;20084;-86
2022/12/25 08:03:41;;;;;;;56.17;17.40;;;8.20;99.90;;;;;;5022610;28;19917;-85
2022/12/25 08:06:08;;;;;;;57.85;18.77;;;8.20;99.90;;;;;;5023985;28;20044;-90
2022/12/25 08:08:35;;;;;;;48.60;17.88;;;8.20;99.90;;;;;;4992493;28;20049;-87
2022/12/25 08:11:01;;;;;;;40.13;14.55;;;8.20;99.90;;;;;;4989963;28;20421;-88
2022/12/25 08:13:30;;;;;;;34.33;13.50;;;8.20;99.90;;;;;;4987039;28;20154;-86
2022/12/25 08:15:58;;;;;;;47.22;14.98;;;8.30;99.90;;;;;;5021207;28;20104;-88
2022/12/25 08:18:23;;;;;;;37.90;13.68;;;8.40;99.90;;;;;;4984047;28;20041;-90
2022/12/25 08:20:49;;;;;;;41.13;15.40;;;8.40;99.90;;;;;;5008600;28;20037;-90
2022/12/25 08:23:15;;;;;;;47.60;15.60;;;8.40;99.90;;;;;;4998848;28;20045;-90
2022/12/25 08:25:40;;;;;;;51.38;16.38;;;8.40;99.90;;;;;;5008327;28;20041;-89
2022/12/25 08:28:06;;;;;;;40.90;13.45;;;8.40;99.90;;;;;;5005982;28;20116;-90
2022/12/25 08:30:32;;;;;;;45.38;15.38;;;8.40;99.90;;;;;;5008568;28;20513;-90
2022/12/25 08:32:58;;;;;;;44.25;15.43;;;8.40;99.90;;;;;;5023905;28;20093;-90
2022/12/25 08:35:25;;;;;;;35.37;13.63;;;8.40;99.90;;;;;;5020197;28;20121;-90
2022/12/25 08:37:51;;;;;;;37.95;14.98;;;8.40;99.90;;;;;;4989352;28;20083;-91
2022/12/25 08:40:17;;;;;;;44.85;14.65;;;8.40;99.90;;;;;;5008484;28;20417;-90
2022/12/25 08:42:43;;;;;;;35.40;13.85;;;8.40;99.90;;;;;;5008514;28;20513;-89
2022/12/25 08:45:09;;;;;;;32.53;12.77;;;8.40;99.90;;;;;;5004459;28;20056;-90
2022/12/25 08:47:35;;;;;;;36.55;12.68;;;8.50;99.90;;;;;;4985631;28;20037;-89
2022/12/25 08:50:00;;;;;;;35.55;12.70;;;8.50;99.90;;;;;;5006178;28;20383;-89
2022/12/25 08:52:27;;;;;;;38.13;14.27;;;8.50;99.90;;;;;;4988595;28;20112;-89
2022/12/25 08:54:53;;;;;;;38.95;13.95;;;8.50;99.90;;;;;;5021584;28;20041;-89
2022/12/25 08:57:19;;;;;;;28.08;11.90;;;8.50;99.90;;;;;;5024210;28;20387;-89
2022/12/25 08:59:44;;;;;;;29.10;10.48;;;8.60;99.90;;;;;;5003158;28;20037;-89
2022/12/25 09:02:11;;;;;;;29.77;12.27;;;8.60;99.90;;;;;;5005423;28;20044;-90
2022/12/25 09:04:37;;;;;;;36.83;13.88;;;8.50;99.90;;;;;;4985134;28;20049;-87
2022/12/25 09:07:03;;;;;;;21.42;9.13;;;8.60;99.90;;;;;;5024394;28;20034;-89
2022/12/25 09:09:29;;;;;;;25.45;10.60;;;8.60;99.90;;;;;;5008725;28;20071;-89
2022/12/25 09:11:54;;;;;;;23.73;10.48;;;8.60;99.90;;;;;;5024782;28;20072;-89
2022/12/25 09:14:20;;;;;;;28.45;11.93;;;8.70;99.90;;;;;;5002332;28;20502;-89
2022/12/25 09:16:49;;;;;;;22.98;9.90;;;8.60;99.90;;;;;;5024770;28;20037;-89
2022/12/25 09:19:15;;;;;;;26.15;11.43;;;8.60;99.90;;;;;;4991544;28;20044;-88
2022/12/25 09:21:40;;;;;;;26.40;10.48;;;8.60;99.90;;;;;;4969898;28;20498;-88
2022/12/25 09:24:06;;;;;;;20.17;9.13;;;8.60;99.90;;;;;;5021697;28;20112;-89
2022/12/25 09:26:32;;;;;;;21.38;9.80;;;8.60;99.90;;;;;;5006293;28;20295;-89
2022/12/25 09:28:58;;;;;;;25.25;9.57;;;8.60;99.90;;;;;;5007243;28;20049;-88
2022/12/25 09:31:24;;;;;;;22.13;10.47;;;8.70;99.90;;;;;;5019790;28;20110;-89
2022/12/25 09:33:50;;;;;;;25.63;10.05;;;8.60;99.90;;;;;;4972896;28;20264;-88
2022/12/25 09:36:16;;;;;;;;;;;8.70;99.90;;;;;;5005952;28;20052;-88
2022/12/25 09:38:41;;;;;;;19.05;7.57;;;8.70;99.90;;;;;;5022016;28;20004;-89
2022/12/25 09:41:25;;;;;;;21.25;9.60;;;8.80;99.90;;;;;;4990918;28;20449;-89
2022/12/25 09:43:58;;;;;;;19.83;9.05;;;8.70;99.90;;;;;;5008242;28;20041;-88
2022/12/25 09:46:26;;;;;;;20.08;8.48;;;8.60;99.90;;;;;;5020366;28;20124;-88
2022/12/25 09:49:08;;;;;;;21.17;8.50;;;8.70;99.90;;;;;;4988049;28;20041;-87
2022/12/25 09:51:41;;;;;;;23.75;9.07;;;8.30;99.90;;;;;;5015882;28;20065;-88
2022/12/25 09:54:21;;;;;;;24.83;9.00;;;8.70;99.90;;;;;;5027188;28;20149;-89
2022/12/25 09:56:46;;;;;;;20.27;9.32;;;8.60;99.90;;;;;;5005309;28;20116;-87
2022/12/25 09:59:26;;;;;;;19.50;7.70;;;8.60;99.90;;;;;;4985611;28;20095;-87
2022/12/25 10:01:59;;;;;;;20.27;8.50;;;8.60;99.90;;;;;;5008344;28;20033;-89
2022/12/25 10:05:02;;;;;;;20.38;8.68;;;8.70;99.90;;;;;;5020459;28;20041;-89
2022/12/25 10:07:53;;;;;;;19.17;8.13;;;8.60;99.90;;;;;;5008731;28;20049;-88
2022/12/25 10:10:45;;;;;;;18.50;7.43;;;8.60;99.90;;;;;;5011288;28;20053;-89
2022/12/25 10:13:38;;;;;;;16.65;7.38;;;8.60;99.90;;;;;;5007736;28;20520;-89
2022/12/25 10:16:19;;;;;;;15.13;6.82;;;8.60;99.90;;;;;;5005962;28;20038;-89
2022/12/25 10:19:09;;;;;;;19.30;7.68;;;8.60;99.90;;;;;;4999460;28;20073;-88
2022/12/25 10:21:35;;;;;;;16.42;7.53;;;8.60;99.90;;;;;;4998264;28;20099;-88
2022/12/25 10:24:19;;;;;;;15.02;7.25;;;8.60;99.90;;;;;;4998818;28;20080;-89
2022/12/25 10:26:47;;;;;;;14.55;5.95;;;8.70;99.90;;;;;;4999026;28;20046;-89
2022/12/25 10:29:16;;;;;;;18.98;7.32;;;8.70;99.90;;;;;;5014779;28;20038;-89
2022/12/25 10:31:47;;;;;;;16.17;7.07;;;8.70;99.90;;;;;;5014096;28;20042;-89
2022/12/25 10:34:14;;;;;;;21.85;9.07;;;8.70;99.90;;;;;;5015008;28;20049;-88
2022/12/25 10:36:42;;;;;;;14.23;6.55;;;8.70;99.90;;;;;;5014141;28;20482;-88
2022/12/25 10:39:18;;;;;;;17.67;6.78;;;8.70;99.90;;;;;;4998420;28;20431;-88
2022/12/25 10:41:55;;;;;;;20.63;7.82;;;8.70;99.90;;;;;;4998044;28;20041;-88
2022/12/25 10:44:25;;;;;;;17.92;6.88;;;8.80;99.90;;;;;;4998585;28;20402;-89
2022/12/25 10:46:54;;;;;;;13.60;6.85;;;8.80;99.90;;;;;;5013842;28;20068;-89
2022/12/25 10:49:22;;;;;;;15.10;7.05;;;8.80;99.90;;;;;;5013982;28;20135;-89
2022/12/25 10:51:49;;;;;;;19.17;7.70;;;8.80;99.90;;;;;;5014260;28;20127;-88
2022/12/25 10:54:30;;;;;;;20.73;7.18;;;8.80;99.90;;;;;;5014376;28;20038;-88
2022/12/25 10:56:58;;;;;;;21.30;7.10;;;8.80;99.90;;;;;;4997889;28;20386;-88
2022/12/25 10:59:30;;;;;;;14.10;6.57;;;8.80;99.90;;;;;;5014620;28;20494;-90
2022/12/25 11:02:03;;;;;;;13.90;5.72;;;8.80;99.90;;;;;;4997438;28;20096;-89
2022/12/25 11:04:32;;;;;;;11.60;5.97;;;8.90;99.90;;;;;;4998008;28;20042;-89
2022/12/25 11:07:04;;;;;;;14.77;6.10;;;8.90;99.90;;;;;;4997923;28;20138;-89
2022/12/25 11:09:30;;;;;;;17.88;6.95;;;8.90;99.90;;;;;;4997434;28;20074;-89
2022/12/25 11:11:55;;;;;;;13.63;5.18;;;9.00;99.90;;;;;;5013859;28;20040;-88
2022/12/25 11:14:22;;;;;;;15.25;6.80;;;9.00;99.90;;;;;;5013796;28;20050;-88
2022/12/25 11:16:48;;;;;;;14.98;6.60;;;9.10;99.90;;;;;;4997014;28;20169;-89
2022/12/25 11:19:22;;;;;;;19.55;8.15;;;9.00;99.90;;;;;;4997597;28;20037;-89
2022/12/25 11:21:54;;;;;;;15.52;6.82;;;9.10;99.90;;;;;;4997921;28;20048;-89
2022/12/25 11:24:23;;;;;;;19.75;9.13;;;9.10;99.90;;;;;;5013093;28;20128;-89
2022/12/25 11:26:58;;;;;;;17.50;8.23;;;9.10;99.90;;;;;;5013001;28;20449;-89
2022/12/25 11:29:42;;;;;;;12.77;6.80;;;9.00;99.90;;;;;;4996597;28;20414;-89
2022/12/25 11:32:42;;;;;;;16.65;8.57;;;9.10;99.90;;;;;;4996853;28;20038;-89
2022/12/25 11:35:14;;;;;;;20.05;9.02;;;9.10;99.90;;;;;;4971631;28;20041;-89
2022/12/25 11:37:49;;;;;;;20.60;8.88;;;9.10;99.90;;;;;;4993225;28;20038;-89
2022/12/25 11:40:27;;;;;;;15.32;8.43;;;9.00;99.90;;;;;;4993296;28;20097;-89
2022/12/25 11:43:17;;;;;;;13.77;5.75;;;9.00;99.90;;;;;;4993542;28;20133;-89
2022/12/25 11:45:58;;;;;;;13.90;6.25;;;9.10;99.90;;;;;;4993354;28;20561;-90
2022/12/25 11:48:55;;;;;;;19.38;9.70;;;9.10;99.90;;;;;;4977095;28;20038;-90
2022/12/25 11:51:28;;;;;;;12.40;4.55;;;9.10;99.90;;;;;;4990798;28;20042;-90
2022/12/25 11:53:59;;;;;;;16.70;7.30;;;9.10;99.90;;;;;;5010867;28;20566;-90
2022/12/25 11:56:29;;;;;;;9.05;4.53;;;9.10;99.90;;;;;;4996361;28;20041;-89
2022/12/25 11:59:05;;;;;;;10.27;5.35;;;9.10;99.90;;;;;;4996209;28;20073;-89
2022/12/25 12:01:41;;;;;;;12.75;5.03;;;9.20;99.90;;;;;;5013699;28;20390;-89
2022/12/25 12:04:33;;;;;;;11.73;6.32;;;9.10;99.90;;;;;;5013021;28;20073;-90
2022/12/25 12:07:27;;;;;;;9.23;5.43;;;9.10;99.90;;;;;;5012514;28;20053;-90
2022/12/25 12:10:04;;;;;;;13.00;5.70;;;9.10;99.90;;;;;;4995686;28;20101;-89
2022/12/25 12:12:35;;;;;;;11.82;5.00;;;9.10;99.90;;;;;;5012524;28;20038;-90
2022/12/25 12:15:27;;;;;;;14.85;6.93;;;9.10;99.90;;;;;;5012757;28;20050;-89
2022/12/25 12:17:53;;;;;;;13.45;6.10;;;9.10;99.90;;;;;;4985280;28;20505;-89
2022/12/25 12:20:31;;;;;;;11.68;5.13;;;9.10;99.90;;;;;;4996695;28;20049;-89
2022/12/25 12:22:59;;;;;;;10.20;4.60;;;9.10;99.90;;;;;;4996332;28;20038;-89
2022/12/25 12:25:25;;;;;;;11.65;5.22;;;9.10;99.90;;;;;;5012694;28;20046;-89
2022/12/25 12:27:57;;;;;;;12.40;4.85;;;9.10;99.90;;;;;;4980089;28;20053;-89
2022/12/25 12:30:30;;;;;;;17.67;5.35;;;9.10;99.90;;;;;;5012517;28;20061;-90
2022/12/25 12:33:00;;;;;;;9.25;4.22;;;9.10;99.90;;;;;;5012685;28;20092;-90
2022/12/25 12:35:34;;;;;;;9.98;5.03;;;9.10;99.90;;;;;;5012301;28;20066;-90
2022/12/25 12:38:13;;;;;;;10.50;4.60;;;9.10;99.90;;;;;;5012009;28;20048;-90
2022/12/25 12:40:58;;;;;;;12.48;5.28;;;9.20;99.90;;;;;;5011228;28;20042;-90
2022/12/25 12:43:55;;;;;;;12.35;4.68;;;9.10;99.90;;;;;;5011087;28;20037;-90
2022/12/25 12:46:27;;;;;;;9.57;5.05;;;9.20;99.90;;;;;;5011724;28;20095;-90
2022/12/25 12:49:25;;;;;;;17.33;7.93;;;9.20;99.90;;;;;;5011633;28;20092;-90
2022/12/25 12:52:03;;;;;;;16.13;7.15;;;9.20;99.90;;;;;;5012067;28;20041;-89
2022/12/25 12:54:29;;;;;;;9.90;5.53;;;9.20;99.90;;;;;;5012406;28;20595;-90
2022/12/25 12:56:55;;;;;;;13.85;5.93;;;9.20;99.90;;;;;;4994802;28;20125;-89
2022/12/25 12:59:22;;;;;;;13.73;6.60;;;9.20;99.90;;;;;;4996091;28;20491;-90
2022/12/25 13:02:03;;;;;;;11.13;5.65;;;9.20;99.90;;;;;;4994995;28;20043;-91
2022/12/25 13:04:53;;;;;;;13.05;6.32;;;9.20;99.90;;;;;;5011968;28;20566;-90
2022/12/25 13:07:48;;;;;;;10.40;5.63;;;9.20;99.90;;;;;;5011189;28;20053;-90
2022/12/25 13:10:31;;;;;;;10.07;5.35;;;9.20;99.90;;;;;;4995080;28;20041;-90
2022/12/25 13:13:05;;;;;;;10.35;5.80;;;9.30;99.90;;;;;;4994652;28;20077;-89
2022/12/25 13:15:33;;;;;;;12.85;5.18;;;9.50;99.90;;;;;;4995317;28;20053;-90
2022/12/25 13:18:04;;;;;;;13.68;5.88;;;9.30;99.90;;;;;;4978899;28;20049;-89
2022/12/25 13:20:54;;;;;;;11.88;6.78;;;9.30;99.90;;;;;;5011357;28;20045;-90
2022/12/25 13:23:32;;;;;;;12.18;5.78;;;9.30;99.90;;;;;;4983446;28;20058;-89
2022/12/25 13:26:02;;;;;;;11.43;6.82;;;9.30;99.90;;;;;;4995198;28;20046;-90
2022/12/25 13:28:30;;;;;;;9.35;5.18;;;9.30;99.90;;;;;;5013801;28;20045;-90
2022/12/25 13:31:24;;;;;;;11.63;6.10;;;9.30;99.90;;;;;;5015239;28;20037;-90
2022/12/25 13:34:04;;;;;;;9.55;5.20;;;9.30;99.90;;;;;;5014924;28;20041;-90
2022/12/25 13:36:36;;;;;;;10.40;5.43;;;9.30;99.90;;;;;;5015247;28;20038;-91
2022/12/25 13:39:05;;;;;;;13.75;7.38;;;9.30;99.90;;;;;;4998431;28;20042;-90
2022/12/25 13:42:04;;;;;;;13.35;6.57;;;9.30;99.90;;;;;;5015659;28;20046;-90
2022/12/25 13:44:40;;;;;;;13.52;6.90;;;9.30;99.90;;;;;;5000851;28;20545;-90
2022/12/25 13:47:23;;;;;;;12.68;6.50;;;9.30;99.90;;;;;;4999090;28;20482;-90
2022/12/25 13:49:51;;;;;;;14.02;7.03;;;9.30;99.90;;;;;;4998689;28;20153;-90
2022/12/25 13:52:20;;;;;;;8.55;5.25;;;9.30;99.90;;;;;;5014821;28;20041;-89
2022/12/25 13:55:01;;;;;;;13.57;7.47;;;9.30;99.90;;;;;;5014111;28;20038;-90
2022/12/25 13:57:39;;;;;;;12.98;6.22;;;9.40;99.90;;;;;;5014791;28;20375;-90
2022/12/25 14:00:06;;;;;;;14.18;7.97;;;9.40;99.90;;;;;;5013897;28;20118;-89
2022/12/25 14:02:36;;;;;;;15.75;7.97;;;9.30;99.90;;;;;;4982645;28;20161;-89
2022/12/25 14:05:20;;;;;;;13.25;7.20;;;9.30;99.90;;;;;;5014333;28;20049;-90
2022/12/25 14:07:51;;;;;;;15.70;8.32;;;9.30;99.90;;;;;;4998323;28;20049;-89
2022/12/25 14:10:18;;;;;;;18.10;9.32;;;9.30;99.90;;;;;;4998259;28;20108;-89
2022/12/25 14:12:48;;;;;;;18.45;9.05;;;9.30;99.90;;;;;;5014508;28;20613;-89
2022/12/25 14:15:19;;;;;;;18.98;9.77;;;9.30;99.90;;;;;;5013614;28;20054;-90
2022/12/25 14:17:45;;;;;;;20.00;10.95;;;9.30;99.90;;;;;;4997118;28;20164;-89
2022/12/25 14:20:21;;;;;;;21.33;11.93;;;9.30;99.90;;;;;;4997873;28;20128;-90
2022/12/25 14:22:50;;;;;;;17.13;11.15;;;9.30;99.90;;;;;;5014085;28;20124;-89
2022/12/25 14:25:16;;;;;;;26.40;11.43;;;9.30;99.90;;;;;;4997907;28;20119;-90
2022/12/25 14:27:48;;;;;;;25.15;12.70;;;9.20;99.90;;;;;;4981705;28;20046;-89
2022/12/25 14:30:14;;;;;;;23.63;13.63;;;9.30;99.90;;;;;;4997376;28;20046;-90
2022/12/25 14:32:43;;;;;;;25.48;14.18;;;9.20;99.90;;;;;;4997659;28;20045;-90
2022/12/25 14:35:10;;;;;;;28.85;14.13;;;9.20;99.90;;;;;;4997516;28;20053;-90
2022/12/25 14:37:37;;;;;;;30.17;15.18;;;9.20;99.90;;;;;;4985205;28;20104;-89
2022/12/25 14:40:29;;;;;;;28.02;14.45;;;9.30;99.90;;;;;;5001493;28;20057;-87
2022/12/25 14:42:55;;;;;;;31.80;15.43;;;9.30;99.90;;;;;;4997709;28;20042;-89